Time;durP1;ratioP1;P1;durP2;ratioP2;P2;SDS_P1;SDS_P2;PMS_P1;PMS_P2;Temp;Humidity;BMP_temperature;BMP_pressure;BME280_temperature;BME280_humidity;BME280_pressure;Samples;Min_cycle;Max_cycle;Signal;HPM_P1;HPM_P2
2022/02/16 00:00:13;;;;;;;8.40;4.00;;;2.80;79.80;;;;;;5011925;28;20314;-67
2022/02/16 00:02:40;;;;;;;5.22;3.28;;;2.80;79.90;;;;;;5011356;28;20701;-67
2022/02/16 00:05:11;;;;;;;5.28;2.85;;;2.70;80.10;;;;;;5014406;28;20191;-68
2022/02/16 00:07:40;;;;;;;3.35;2.20;;;2.60;80.50;;;;;;5031103;28;20288;-68
2022/02/16 00:10:09;;;;;;;4.07;2.60;;;2.50;80.60;;;;;;5026535;28;20214;-69
2022/02/16 00:12:35;;;;;;;4.20;2.70;;;2.50;81.00;;;;;;5010916;28;20287;-67
2022/02/16 00:15:04;;;;;;;5.70;1.70;;;2.40;81.60;;;;;;5012824;28;20603;-68
2022/02/16 00:17:31;;;;;;;5.55;2.30;;;2.40;81.80;;;;;;5031040;28;20538;-68
2022/02/16 00:19:58;;;;;;;3.40;2.20;;;2.40;82.00;;;;;;5028656;28;20267;-67
2022/02/16 00:22:27;;;;;;;3.65;1.90;;;2.30;81.90;;;;;;5011457;28;20199;-67
2022/02/16 00:24:54;;;;;;;4.35;2.67;;;2.30;81.70;;;;;;5011143;28;20269;-71
2022/02/16 00:27:21;;;;;;;3.95;2.30;;;2.20;82.20;;;;;;5034766;28;20226;-68
2022/02/16 00:29:48;;;;;;;3.47;1.95;;;2.20;82.80;;;;;;5035070;28;20199;-67
2022/02/16 00:32:14;;;;;;;3.95;2.53;;;2.20;82.40;;;;;;5015159;28;20219;-67
2022/02/16 00:34:41;;;;;;;5.47;2.72;;;2.10;82.40;;;;;;5014854;28;20191;-68
2022/02/16 00:37:08;;;;;;;3.17;1.85;;;2.10;82.50;;;;;;5031259;28;20218;-68
2022/02/16 00:39:37;;;;;;;5.55;2.58;;;2.10;82.50;;;;;;5034131;28;20202;-68
2022/02/16 00:42:04;;;;;;;4.30;2.00;;;2.00;82.40;;;;;;5019217;28;20250;-68
2022/02/16 00:44:32;;;;;;;3.97;2.40;;;1.90;83.10;;;;;;5033399;28;20200;-67
2022/02/16 00:46:59;;;;;;;4.78;2.85;;;1.80;83.70;;;;;;5034278;28;20226;-68
2022/02/16 00:49:26;;;;;;;3.83;2.65;;;1.80;84.00;;;;;;5032249;28;20214;-67
2022/02/16 00:51:53;;;;;;;4.43;2.55;;;1.80;83.70;;;;;;5031850;28;20195;-68
2022/02/16 00:54:20;;;;;;;4.22;2.53;;;1.80;83.30;;;;;;5014084;28;20219;-67
2022/02/16 00:56:48;;;;;;;4.75;2.67;;;1.70;83.40;;;;;;5014108;28;20234;-71
2022/02/16 00:59:15;;;;;;;4.68;2.10;;;1.70;83.60;;;;;;5014349;28;20199;-67
2022/02/16 01:01:42;;;;;;;8.30;3.03;;;1.70;84.10;;;;;;5013903;28;20223;-71
2022/02/16 01:04:09;;;;;;;4.53;2.63;;;1.70;83.60;;;;;;5014036;28;20250;-68
2022/02/16 01:06:35;;;;;;;4.85;2.65;;;1.70;83.60;;;;;;5014209;28;20188;-71
2022/02/16 01:09:03;;;;;;;6.60;2.60;;;1.60;84.00;;;;;;5032915;28;20273;-68
2022/02/16 01:11:30;;;;;;;3.15;2.03;;;1.60;84.30;;;;;;5033799;28;20210;-68
2022/02/16 01:13:58;;;;;;;3.25;2.20;;;1.70;84.20;;;;;;5014712;28;20254;-67
2022/02/16 01:16:25;;;;;;;4.18;2.40;;;1.70;84.00;;;;;;5013907;28;20238;-66
2022/02/16 01:18:52;;;;;;;3.63;2.17;;;1.70;83.40;;;;;;5030127;28;20545;-68
2022/02/16 01:21:18;;;;;;;3.90;2.38;;;1.80;83.40;;;;;;5033705;28;20227;-67
2022/02/16 01:23:45;;;;;;;3.50;2.30;;;1.80;83.00;;;;;;5017108;28;20212;-70
2022/02/16 01:26:12;;;;;;;4.25;2.30;;;1.80;83.20;;;;;;5031574;28;20219;-68
2022/02/16 01:28:39;;;;;;;4.43;2.30;;;1.90;83.90;;;;;;5018041;28;20192;-68
2022/02/16 01:31:08;;;;;;;3.78;1.80;;;1.80;84.40;;;;;;5013624;28;20269;-68
2022/02/16 01:33:35;;;;;;;3.63;2.75;;;1.80;85.10;;;;;;5025845;28;20211;-68
2022/02/16 01:36:02;;;;;;;3.08;1.90;;;1.80;85.30;;;;;;5019618;28;20183;-68
2022/02/16 01:38:29;;;;;;;4.55;2.72;;;1.90;85.60;;;;;;5013531;28;20214;-68
2022/02/16 01:40:56;;;;;;;3.40;2.20;;;1.90;85.60;;;;;;5022764;28;20619;-68
2022/02/16 01:43:23;;;;;;;3.60;2.53;;;2.00;85.90;;;;;;5033006;28;20195;-67
2022/02/16 01:45:50;;;;;;;4.95;1.95;;;2.10;85.80;;;;;;5022701;28;20192;-67
2022/02/16 01:48:19;;;;;;;3.50;2.00;;;2.10;85.00;;;;;;5013719;28;20227;-67
2022/02/16 01:50:46;;;;;;;4.30;2.28;;;2.10;84.30;;;;;;5020911;28;20286;-67
2022/02/16 01:53:12;;;;;;;4.90;2.80;;;2.00;84.50;;;;;;5033064;28;20272;-68
2022/02/16 01:55:40;;;;;;;3.45;1.80;;;2.00;85.00;;;;;;5025423;28;20188;-67
2022/02/16 01:58:09;;;;;;;3.80;2.17;;;2.00;84.40;;;;;;5018866;28;20511;-68
2022/02/16 02:00:36;;;;;;;3.45;2.25;;;2.00;84.20;;;;;;5032770;28;20266;-68
2022/02/16 02:03:03;;;;;;;3.50;1.70;;;1.90;84.00;;;;;;5027499;28;20237;-67
2022/02/16 02:05:31;;;;;;;4.70;2.42;;;1.90;84.70;;;;;;5012826;28;20196;-68
2022/02/16 02:07:58;;;;;;;4.28;3.80;;;1.90;85.20;;;;;;5015936;28;20237;-69
2022/02/16 02:10:25;;;;;;;3.88;1.98;;;1.90;85.50;;;;;;5032395;28;20229;-67
2022/02/16 02:12:52;;;;;;;4.05;1.48;;;1.90;86.00;;;;;;5029262;28;20987;-67
2022/02/16 02:15:22;;;;;;;2.13;1.35;;;1.90;86.30;;;;;;5012962;28;20685;-67
2022/02/16 02:17:51;;;;;;;2.92;1.65;;;1.90;86.60;;;;;;5014084;28;20195;-68
2022/02/16 02:20:21;;;;;;;2.65;1.23;;;1.90;86.20;;;;;;5032754;28;20199;-67
2022/02/16 02:22:48;;;;;;;2.63;1.70;;;1.80;86.90;;;;;;5030771;28;20667;-67
2022/02/16 02:25:17;;;;;;;6.18;2.08;;;1.80;86.40;;;;;;5012538;28;20282;-67
2022/02/16 02:27:43;;;;;;;4.85;2.75;;;1.80;86.10;;;;;;5012079;28;20191;-67
2022/02/16 02:30:12;;;;;;;4.25;1.98;;;1.80;84.50;;;;;;5012593;28;20196;-67
2022/02/16 02:32:40;;;;;;;3.30;1.63;;;1.80;84.90;;;;;;5025359;28;20226;-68
2022/02/16 02:35:09;;;;;;;4.28;2.35;;;1.80;85.70;;;;;;5032357;28;20187;-67
2022/02/16 02:37:38;;;;;;;4.95;1.90;;;1.80;85.40;;;;;;5018943;28;20583;-74
2022/02/16 02:40:06;;;;;;;4.72;2.25;;;1.70;85.00;;;;;;5012405;28;20188;-67
2022/02/16 02:42:36;;;;;;;4.90;1.98;;;1.70;85.30;;;;;;5023770;28;20253;-68
2022/02/16 02:45:04;;;;;;;2.63;1.65;;;1.60;85.80;;;;;;5032260;28;20195;-68
2022/02/16 02:47:31;;;;;;;3.65;2.25;;;1.60;85.90;;;;;;5012818;28;20258;-68
2022/02/16 02:49:58;;;;;;;2.72;1.58;;;1.60;86.10;;;;;;5012668;28;20188;-67
2022/02/16 02:52:25;;;;;;;2.65;1.42;;;1.60;86.80;;;;;;5027537;28;20249;-67
2022/02/16 02:54:53;;;;;;;2.60;1.42;;;1.50;87.20;;;;;;5031184;28;20565;-68
2022/02/16 02:57:20;;;;;;;4.15;1.23;;;1.50;87.70;;;;;;5016055;28;20184;-68
2022/02/16 02:59:47;;;;;;;3.17;1.40;;;1.40;88.40;;;;;;5012577;28;20195;-67
2022/02/16 03:02:14;;;;;;;3.38;2.10;;;1.50;87.90;;;;;;5025215;28;20621;-67
2022/02/16 03:04:41;;;;;;;3.00;1.60;;;1.60;87.50;;;;;;5031935;28;20230;-67
2022/02/16 03:07:08;;;;;;;2.03;0.95;;;1.60;87.30;;;;;;5018895;28;20194;-68
2022/02/16 03:09:35;;;;;;;2.22;0.90;;;1.60;86.80;;;;;;5011975;28;20270;-71
2022/02/16 03:12:03;;;;;;;2.80;1.83;;;1.60;86.30;;;;;;5022037;28;20199;-68
2022/02/16 03:14:30;;;;;;;1.70;0.88;;;1.70;85.90;;;;;;5030975;28;20304;-68
2022/02/16 03:16:57;;;;;;;2.20;1.10;;;1.70;85.30;;;;;;5021300;28;20274;-67
2022/02/16 03:19:24;;;;;;;2.10;0.80;;;1.70;85.40;;;;;;5011658;28;20258;-67
2022/02/16 03:21:51;;;;;;;1.85;1.10;;;1.70;85.00;;;;;;5019505;28;20195;-68
2022/02/16 03:24:18;;;;;;;1.63;0.90;;;1.80;84.90;;;;;;5031528;28;20646;-67
2022/02/16 03:26:44;;;;;;;2.22;1.30;;;1.90;84.90;;;;;;5023539;28;20709;-67
2022/02/16 03:29:13;;;;;;;14.75;6.50;;;1.90;84.10;;;;;;5011941;28;20200;-68
2022/02/16 03:31:40;;;;;;;15.38;8.10;;;1.90;84.30;;;;;;5016553;28;20789;-68
2022/02/16 03:34:07;;;;;;;3.28;1.60;;;2.00;84.30;;;;;;5030345;28;20273;-68
2022/02/16 03:36:34;;;;;;;2.83;1.40;;;1.90;83.50;;;;;;5025946;28;20245;-69
2022/02/16 03:39:01;;;;;;;1.80;1.10;;;2.00;83.10;;;;;;5011357;28;20200;-67
2022/02/16 03:41:28;;;;;;;2.50;1.02;;;2.00;82.70;;;;;;5013534;28;20290;-67
2022/02/16 03:43:55;;;;;;;3.75;1.40;;;2.00;82.10;;;;;;5031042;28;20222;-67
2022/02/16 03:46:23;;;;;;;3.58;1.38;;;1.90;82.20;;;;;;5028337;28;20248;-67
2022/02/16 03:48:50;;;;;;;1.65;0.73;;;1.90;81.90;;;;;;5026002;28;20213;-67
2022/02/16 03:51:17;;;;;;;2.60;1.15;;;1.90;82.20;;;;;;5029785;28;20299;-68
2022/02/16 03:53:44;;;;;;;2.13;0.80;;;2.00;81.90;;;;;;5011213;28;20215;-67
2022/02/16 03:56:11;;;;;;;2.15;0.85;;;2.10;82.00;;;;;;5011099;28;20279;-68
2022/02/16 03:58:38;;;;;;;1.90;0.82;;;2.10;81.30;;;;;;5029150;28;20191;-67
2022/02/16 04:01:05;;;;;;;1.90;0.80;;;2.20;81.20;;;;;;5030972;28;20612;-68
2022/02/16 04:03:33;;;;;;;2.00;0.70;;;2.20;80.50;;;;;;5012706;28;20238;-68
2022/02/16 04:06:00;;;;;;;2.30;0.80;;;2.30;80.40;;;;;;5011693;28;20254;-69
2022/02/16 04:08:27;;;;;;;1.60;0.70;;;2.30;80.10;;;;;;5027052;28;20237;-68
2022/02/16 04:10:54;;;;;;;1.60;0.70;;;2.40;78.70;;;;;;5019989;28;20192;-68
2022/02/16 04:13:21;;;;;;;2.10;0.90;;;2.40;78.60;;;;;;5011017;28;20215;-68
2022/02/16 04:15:48;;;;;;;1.58;0.70;;;2.40;78.30;;;;;;5019422;28;20261;-67
2022/02/16 04:18:20;;;;;;;3.65;0.70;;;2.40;78.20;;;;;;5024164;28;20180;-68
2022/02/16 04:20:48;;;;;;;1.80;0.60;;;2.40;77.70;;;;;;5010917;28;20650;-67
2022/02/16 04:23:16;;;;;;;1.92;1.00;;;2.50;77.90;;;;;;5015755;28;20179;-68
2022/02/16 04:25:43;;;;;;;1.63;0.75;;;2.50;77.90;;;;;;5030740;28;20202;-67
2022/02/16 04:28:10;;;;;;;1.85;0.77;;;2.60;77.90;;;;;;5014775;28;20315;-68
2022/02/16 04:30:37;;;;;;;1.83;0.88;;;2.70;77.30;;;;;;5028251;28;20253;-68
2022/02/16 04:33:04;;;;;;;2.00;1.00;;;2.70;77.20;;;;;;5016044;28;20211;-69
2022/02/16 04:35:31;;;;;;;2.10;1.00;;;2.80;77.00;;;;;;5011051;28;20619;-68
2022/02/16 04:37:59;;;;;;;2.08;0.90;;;2.80;76.70;;;;;;5022451;28;20194;-68
2022/02/16 04:40:26;;;;;;;1.80;0.90;;;2.80;76.40;;;;;;5024600;28;20188;-67
2022/02/16 04:42:53;;;;;;;1.77;0.98;;;2.80;76.50;;;;;;5010872;28;20203;-68
2022/02/16 04:45:20;;;;;;;3.03;1.00;;;2.90;76.40;;;;;;5010652;28;20187;-74
2022/02/16 04:47:48;;;;;;;2.33;1.02;;;2.90;75.60;;;;;;5021103;28;20219;-67
2022/02/16 04:50:15;;;;;;;2.53;1.20;;;2.90;75.00;;;;;;5010743;28;20227;-68
2022/02/16 04:52:42;;;;;;;2.35;0.90;;;2.80;74.80;;;;;;5011408;28;20231;-68
2022/02/16 04:55:13;;;;;;;2.72;1.05;;;2.80;75.00;;;;;;5030305;28;20262;-68
2022/02/16 04:57:40;;;;;;;2.10;1.00;;;2.80;75.30;;;;;;5029333;28;20198;-69
2022/02/16 05:00:09;;;;;;;2.42;1.05;;;2.80;75.20;;;;;;5010617;28;20294;-68
2022/02/16 05:02:36;;;;;;;3.10;1.25;;;2.80;75.40;;;;;;5010856;28;20242;-68
2022/02/16 05:05:03;;;;;;;2.40;1.30;;;2.80;75.40;;;;;;5029163;28;20638;-68
2022/02/16 05:07:30;;;;;;;2.63;1.20;;;2.90;75.40;;;;;;5030206;28;20202;-68
2022/02/16 05:09:57;;;;;;;2.47;1.40;;;2.90;75.40;;;;;;5012457;28;20192;-68
2022/02/16 05:12:25;;;;;;;2.20;1.27;;;2.80;76.10;;;;;;5015442;28;20341;-68
2022/02/16 05:14:52;;;;;;;2.30;1.40;;;2.80;75.30;;;;;;5014246;28;20259;-68
2022/02/16 05:17:19;;;;;;;2.92;1.65;;;2.80;75.70;;;;;;5014046;28;20203;-68
2022/02/16 05:19:46;;;;;;;2.75;1.48;;;2.70;75.60;;;;;;5022349;28;20320;-68
2022/02/16 05:22:13;;;;;;;3.72;2.03;;;2.70;75.50;;;;;;5033605;28;20601;-68
2022/02/16 05:24:41;;;;;;;4.28;1.30;;;2.70;76.00;;;;;;5024966;28;20263;-67
2022/02/16 05:27:08;;;;;;;2.95;1.48;;;2.70;76.00;;;;;;5016477;28;20531;-69
2022/02/16 05:29:54;;;;;;;2.20;1.30;;;2.70;76.10;;;;;;5029812;28;20661;-68
2022/02/16 05:32:21;;;;;;;2.78;1.30;;;2.60;75.90;;;;;;5014741;28;20191;-68
2022/02/16 05:34:48;;;;;;;2.30;1.00;;;2.60;75.80;;;;;;5013664;28;20734;-68
2022/02/16 05:37:15;;;;;;;2.00;1.20;;;2.50;75.90;;;;;;5029433;28;20233;-68
2022/02/16 05:39:42;;;;;;;2.70;1.40;;;2.50;76.00;;;;;;5033396;28;20292;-70
2022/02/16 05:42:09;;;;;;;2.20;1.00;;;2.50;76.00;;;;;;5017256;28;20188;-68
2022/02/16 05:44:36;;;;;;;4.03;1.75;;;2.40;75.60;;;;;;5013645;28;20191;-68
2022/02/16 05:47:05;;;;;;;3.17;2.13;;;2.30;75.80;;;;;;5025998;28;20187;-68
2022/02/16 05:49:32;;;;;;;3.60;1.80;;;2.30;76.10;;;;;;5023191;28;20194;-68
2022/02/16 05:51:59;;;;;;;3.72;1.73;;;2.30;76.80;;;;;;5018812;28;20203;-68
2022/02/16 05:54:27;;;;;;;5.63;2.42;;;2.30;76.60;;;;;;5019511;28;20218;-68
2022/02/16 05:56:54;;;;;;;4.70;2.35;;;2.20;76.50;;;;;;5032650;28;20702;-68
2022/02/16 05:59:21;;;;;;;5.90;3.92;;;2.20;76.30;;;;;;5020177;28;20575;-68
2022/02/16 06:01:48;;;;;;;7.93;3.33;;;2.20;77.10;;;;;;5012947;28;20191;-69
2022/02/16 06:04:17;;;;;;;4.38;2.70;;;2.20;77.50;;;;;;5012935;28;20240;-68
2022/02/16 06:06:44;;;;;;;4.18;2.88;;;2.30;77.50;;;;;;5013091;28;20230;-69
2022/02/16 06:09:11;;;;;;;4.05;2.65;;;2.30;77.70;;;;;;5012844;28;20180;-68
2022/02/16 06:11:38;;;;;;;5.85;3.85;;;2.30;77.50;;;;;;5014326;28;20330;-68
2022/02/16 06:14:07;;;;;;;9.13;5.57;;;2.30;77.90;;;;;;5011411;28;20223;-76
2022/02/16 06:16:34;;;;;;;5.35;3.60;;;2.40;78.10;;;;;;5013844;28;20205;-69
2022/02/16 06:19:01;;;;;;;7.03;3.60;;;2.40;77.70;;;;;;5023520;28;20521;-68
2022/02/16 06:21:29;;;;;;;6.63;4.80;;;2.30;77.20;;;;;;5012115;28;20245;-67
2022/02/16 06:23:56;;;;;;;6.47;4.07;;;2.30;77.40;;;;;;5018587;28;20670;-68
2022/02/16 06:26:23;;;;;;;10.40;6.00;;;2.30;77.80;;;;;;5012777;28;20192;-68
2022/02/16 06:28:50;;;;;;;11.10;5.53;;;2.30;78.20;;;;;;5014962;28;20214;-68
2022/02/16 06:31:17;;;;;;;7.10;4.63;;;2.30;78.80;;;;;;5032251;28;20195;-68
2022/02/16 06:33:44;;;;;;;5.10;3.38;;;2.40;78.60;;;;;;5014907;28;20192;-67
2022/02/16 06:36:11;;;;;;;4.07;3.05;;;2.40;79.00;;;;;;5025703;28;20281;-68
2022/02/16 06:38:40;;;;;;;4.78;2.38;;;2.40;79.20;;;;;;5032290;28;20555;-68
2022/02/16 06:41:07;;;;;;;5.20;3.08;;;2.40;79.20;;;;;;5018805;28;20184;-68
2022/02/16 06:43:34;;;;;;;29.98;14.80;;;2.40;79.40;;;;;;5012621;28;20334;-68
2022/02/16 06:46:01;;;;;;;3.97;2.78;;;2.50;79.00;;;;;;5019212;28;20187;-68
2022/02/16 06:48:28;;;;;;;3.15;2.08;;;2.50;79.10;;;;;;5029888;28;20672;-68
2022/02/16 06:50:55;;;;;;;3.88;2.60;;;2.50;78.60;;;;;;5029672;28;20198;-68
2022/02/16 06:53:22;;;;;;;5.75;4.22;;;2.50;78.40;;;;;;5030180;28;20265;-68
2022/02/16 06:55:50;;;;;;;7.20;3.80;;;2.60;78.60;;;;;;5028238;28;20532;-68
2022/02/16 06:58:18;;;;;;;5.18;3.05;;;2.60;77.70;;;;;;5025875;28;20606;-68
2022/02/16 07:00:45;;;;;;;7.88;3.95;;;2.60;78.20;;;;;;5025478;28;20218;-68
2022/02/16 07:03:13;;;;;;;7.88;4.20;;;2.70;78.30;;;;;;5029758;28;20226;-68
2022/02/16 07:05:40;;;;;;;9.77;4.95;;;2.80;78.40;;;;;;5029130;28;20274;-68
2022/02/16 07:08:08;;;;;;;6.55;3.70;;;2.90;78.40;;;;;;5029516;28;20348;-67
2022/02/16 07:10:35;;;;;;;6.40;3.67;;;3.00;78.60;;;;;;5028441;28;20187;-68
2022/02/16 07:13:03;;;;;;;3.63;2.70;;;3.10;79.10;;;;;;5029470;28;20223;-68
2022/02/16 07:15:31;;;;;;;8.20;3.40;;;3.30;79.00;;;;;;5029400;28;20215;-68
2022/02/16 07:18:04;;;;;;;5.80;3.03;;;3.40;78.40;;;;;;5030161;28;20195;-68
2022/02/16 07:20:32;;;;;;;5.30;3.40;;;3.60;77.90;;;;;;5030229;28;20248;-68
2022/02/16 07:23:01;;;;;;;4.82;3.45;;;3.80;78.10;;;;;;5023619;28;20234;-68
2022/02/16 07:25:27;;;;;;;7.80;4.05;;;4.10;77.10;;;;;;5023714;28;20222;-68
2022/02/16 07:27:59;;;;;;;4.97;3.38;;;4.40;77.30;;;;;;5030807;28;20261;-68
2022/02/16 07:30:27;;;;;;;8.88;4.75;;;4.80;77.40;;;;;;5030363;28;20631;-68
2022/02/16 07:32:54;;;;;;;4.90;3.60;;;5.00;73.80;;;;;;5026476;28;20716;-69
2022/02/16 07:35:21;;;;;;;4.60;3.47;;;5.00;72.40;;;;;;5029525;28;20231;-68
2022/02/16 07:37:50;;;;;;;9.20;3.30;;;5.10;71.90;;;;;;5029166;28;20288;-67
2022/02/16 07:40:17;;;;;;;5.90;3.30;;;5.20;72.30;;;;;;5027742;28;20640;-68
2022/02/16 07:42:44;;;;;;;4.97;2.95;;;5.30;71.30;;;;;;5027531;28;20183;-68
2022/02/16 07:45:11;;;;;;;4.88;3.17;;;5.40;70.10;;;;;;5027854;28;20278;-68
2022/02/16 07:47:40;;;;;;;4.53;2.55;;;5.40;69.50;;;;;;5028939;28;20199;-69
2022/02/16 07:50:07;;;;;;;4.40;2.92;;;5.50;69.10;;;;;;5025455;28;20184;-68
2022/02/16 07:52:37;;;;;;;6.95;3.13;;;5.50;69.40;;;;;;5030834;28;20198;-68
2022/02/16 07:55:05;;;;;;;4.10;2.40;;;5.50;68.40;;;;;;5028029;28;20211;-70
2022/02/16 07:57:32;;;;;;;3.10;2.30;;;5.50;68.90;;;;;;5025093;28;20191;-68
2022/02/16 07:59:59;;;;;;;5.30;3.20;;;5.60;69.40;;;;;;5028524;28;20179;-70
2022/02/16 08:02:26;;;;;;;8.20;3.65;;;5.60;67.90;;;;;;5027610;28;20199;-68
2022/02/16 08:04:54;;;;;;;6.70;4.10;;;5.60;67.90;;;;;;5013567;28;20198;-75
2022/02/16 08:07:21;;;;;;;8.18;5.20;;;5.70;68.60;;;;;;5019149;28;20218;-71
2022/02/16 08:09:48;;;;;;;11.02;5.70;;;5.70;67.60;;;;;;5020878;28;20218;-69
2022/02/16 08:12:15;;;;;;;15.35;10.63;;;5.70;67.90;;;;;;5019783;28;20619;-68
2022/02/16 08:14:42;;;;;;;11.30;8.82;;;5.80;68.20;;;;;;5019245;28;20191;-71
2022/02/16 08:17:09;;;;;;;14.00;11.07;;;5.80;67.70;;;;;;5015988;28;20279;-69
2022/02/16 08:19:36;;;;;;;11.65;6.82;;;5.80;68.30;;;;;;5019799;28;20701;-68
2022/02/16 08:22:05;;;;;;;9.40;6.57;;;6.00;67.90;;;;;;5021956;28;20222;-68
2022/02/16 08:24:32;;;;;;;8.13;6.50;;;6.20;67.40;;;;;;5017685;28;20205;-68
2022/02/16 08:27:00;;;;;;;9.07;5.50;;;6.40;66.70;;;;;;5019129;28;20223;-68
2022/02/16 08:29:27;;;;;;;6.45;4.90;;;6.60;65.50;;;;;;5017460;28;20277;-70
2022/02/16 08:31:54;;;;;;;9.07;4.65;;;6.80;63.20;;;;;;5022861;28;20199;-68
2022/02/16 08:34:21;;;;;;;6.88;4.78;;;7.30;63.50;;;;;;5022805;28;20292;-69
2022/02/16 08:36:55;;;;;;;5.13;3.30;;;7.70;63.60;;;;;;5018539;28;20251;-68
2022/02/16 08:39:24;;;;;;;4.43;3.42;;;7.90;62.20;;;;;;5020603;28;20199;-68
2022/02/16 08:41:51;;;;;;;3.88;2.92;;;8.00;59.70;;;;;;5018890;28;20195;-69
2022/02/16 08:44:18;;;;;;;4.30;1.65;;;7.90;59.20;;;;;;5021226;28;20280;-68
2022/02/16 08:46:45;;;;;;;4.00;1.75;;;8.00;59.00;;;;;;5022023;28;20183;-69
2022/02/16 08:49:12;;;;;;;2.65;1.65;;;8.00;59.60;;;;;;5024641;28;20199;-68
2022/02/16 08:51:39;;;;;;;2.80;1.90;;;8.00;60.20;;;;;;5026256;28;20258;-68
2022/02/16 08:54:06;;;;;;;4.38;3.10;;;8.00;60.70;;;;;;5026570;28;20541;-69
2022/02/16 08:56:49;;;;;;;19.10;10.10;;;8.00;60.40;;;;;;5023801;28;20289;-77
2022/02/16 08:59:16;;;;;;;14.73;7.28;;;7.90;60.40;;;;;;5023955;28;20192;-68
2022/02/16 09:01:44;;;;;;;23.30;12.90;;;7.90;61.00;;;;;;5027116;28;20311;-73
2022/02/16 09:04:11;;;;;;;36.83;16.85;;;7.80;60.60;;;;;;5026494;28;20289;-68
2022/02/16 09:06:38;;;;;;;21.13;12.52;;;7.80;60.20;;;;;;5027520;28;20207;-68
2022/02/16 09:09:22;;;;;;;14.68;8.23;;;7.80;61.10;;;;;;5023922;28;20238;-68
2022/02/16 09:11:50;;;;;;;6.13;3.20;;;7.80;61.90;;;;;;5021233;28;20274;-70
2022/02/16 09:14:17;;;;;;;4.63;2.60;;;7.80;62.40;;;;;;5025595;28;20356;-68
2022/02/16 09:16:44;;;;;;;3.28;2.40;;;7.70;63.20;;;;;;5021311;28;20258;-78
2022/02/16 09:19:11;;;;;;;3.10;2.10;;;7.70;63.50;;;;;;5023574;28;20183;-68
2022/02/16 09:21:38;;;;;;;3.65;2.17;;;7.70;63.70;;;;;;5028016;28;20195;-68
2022/02/16 09:24:05;;;;;;;4.80;2.60;;;7.60;64.10;;;;;;5022694;28;20261;-70
2022/02/16 09:26:33;;;;;;;3.17;2.63;;;7.60;64.50;;;;;;5015862;28;20638;-68
2022/02/16 09:29:02;;;;;;;4.15;2.42;;;7.60;64.70;;;;;;5023679;28;20282;-69
2022/02/16 09:31:29;;;;;;;4.82;3.20;;;7.60;65.20;;;;;;5022687;28;20266;-68
2022/02/16 09:33:56;;;;;;;3.67;2.30;;;7.70;65.40;;;;;;5019449;28;20187;-68
2022/02/16 09:36:23;;;;;;;4.40;3.00;;;7.70;65.70;;;;;;5021268;28;20262;-68
2022/02/16 09:38:50;;;;;;;4.22;3.35;;;7.80;65.60;;;;;;5019309;28;20541;-68
2022/02/16 09:41:17;;;;;;;5.80;3.25;;;7.90;64.50;;;;;;5020499;28;20245;-70
2022/02/16 09:43:47;;;;;;;6.05;3.50;;;7.90;64.50;;;;;;5016499;28;20288;-69
2022/02/16 09:46:15;;;;;;;6.47;4.50;;;8.00;64.00;;;;;;5020556;28;20227;-68
2022/02/16 09:48:42;;;;;;;8.43;4.30;;;8.00;63.90;;;;;;5027420;28;20259;-70
2022/02/16 09:51:09;;;;;;;7.25;4.25;;;8.00;63.30;;;;;;5022346;28;20201;-69
2022/02/16 09:53:37;;;;;;;4.28;3.17;;;8.10;62.50;;;;;;5025186;28;20253;-69
2022/02/16 09:56:05;;;;;;;6.32;3.67;;;8.00;60.80;;;;;;5030367;28;20277;-68
2022/02/16 09:58:33;;;;;;;7.20;3.65;;;8.10;60.10;;;;;;5025977;28;20195;-69
2022/02/16 10:01:05;;;;;;;3.80;2.30;;;8.20;59.50;;;;;;5029735;28;20234;-69
2022/02/16 10:03:33;;;;;;;2.97;1.75;;;8.20;57.60;;;;;;5030287;28;20195;-68
2022/02/16 10:06:00;;;;;;;4.43;2.60;;;8.20;58.00;;;;;;5026414;28;20230;-68
2022/02/16 10:08:41;;;;;;;4.13;2.97;;;8.30;59.60;;;;;;5028121;28;20202;-68
2022/02/16 10:11:09;;;;;;;7.47;4.00;;;8.30;61.50;;;;;;5019325;28;20198;-69
2022/02/16 10:13:36;;;;;;;5.47;3.55;;;8.40;60.30;;;;;;5022432;28;20288;-69
2022/02/16 10:16:03;;;;;;;4.28;2.88;;;8.60;60.50;;;;;;5026993;28;20277;-69
2022/02/16 10:18:30;;;;;;;5.93;4.50;;;9.00;59.60;;;;;;5023870;28;20195;-69
2022/02/16 10:21:09;;;;;;;4.00;2.28;;;9.30;58.60;;;;;;5022623;28;20200;-71
2022/02/16 10:23:44;;;;;;;5.13;2.53;;;9.90;55.80;;;;;;5024378;28;20240;-68
2022/02/16 10:26:12;;;;;;;2.88;2.17;;;10.20;53.90;;;;;;5024931;28;20641;-69
2022/02/16 10:28:42;;;;;;;3.40;2.15;;;10.30;53.60;;;;;;5024073;28;20202;-69
2022/02/16 10:31:10;;;;;;;6.05;3.72;;;10.40;53.40;;;;;;5028212;28;20191;-68
2022/02/16 10:33:39;;;;;;;6.50;4.10;;;10.40;53.80;;;;;;5027162;28;20195;-69
2022/02/16 10:36:11;;;;;;;7.78;4.00;;;10.30;52.50;;;;;;5019114;28;20215;-69
2022/02/16 10:38:53;;;;;;;10.82;4.55;;;10.30;52.90;;;;;;5021319;28;20287;-69
2022/02/16 10:41:21;;;;;;;4.50;3.08;;;10.30;52.60;;;;;;5022169;28;20274;-71
2022/02/16 10:43:50;;;;;;;9.88;2.00;;;10.10;50.10;;;;;;5021957;28;20219;-68
2022/02/16 10:46:20;;;;;;;7.38;2.45;;;10.10;50.90;;;;;;5021527;28;20187;-69
2022/02/16 10:48:47;;;;;;;4.45;2.00;;;10.00;51.60;;;;;;5022566;28;20584;-68
2022/02/16 10:51:19;;;;;;;7.20;2.30;;;10.10;52.00;;;;;;5019267;28;20226;-68
2022/02/16 10:53:47;;;;;;;6.07;2.17;;;10.10;49.10;;;;;;5024217;28;20231;-70
2022/02/16 10:56:14;;;;;;;4.45;1.80;;;10.20;50.50;;;;;;5022666;28;20219;-69
2022/02/16 10:58:41;;;;;;;5.05;2.30;;;10.20;49.10;;;;;;5021275;28;20269;-68
2022/02/16 11:01:10;;;;;;;5.35;2.40;;;10.20;49.30;;;;;;5022639;28;20288;-68
2022/02/16 11:03:42;;;;;;;3.85;2.58;;;10.00;48.50;;;;;;5019035;28;20188;-69
2022/02/16 11:06:13;;;;;;;3.00;1.90;;;10.00;49.60;;;;;;5024950;28;20191;-69
2022/02/16 11:08:43;;;;;;;5.28;2.17;;;9.80;51.10;;;;;;5023564;28;20353;-68
2022/02/16 11:11:12;;;;;;;3.40;2.25;;;9.70;51.90;;;;;;5021527;28;20188;-69
2022/02/16 11:13:42;;;;;;;3.00;1.20;;;9.70;52.60;;;;;;5022698;28;20231;-69
2022/02/16 11:16:09;;;;;;;2.90;1.77;;;9.60;52.50;;;;;;5021211;28;20211;-69
2022/02/16 11:18:46;;;;;;;4.35;2.10;;;9.50;52.80;;;;;;5024622;28;20280;-68
2022/02/16 11:21:15;;;;;;;6.38;2.08;;;9.60;53.50;;;;;;5019751;28;20198;-68
2022/02/16 11:23:47;;;;;;;2.95;1.70;;;9.60;53.60;;;;;;5024620;28;20294;-68
2022/02/16 11:26:34;;;;;;;5.22;1.63;;;9.50;54.20;;;;;;5029361;28;20275;-68
2022/02/16 11:29:05;;;;;;;5.90;2.22;;;9.40;54.50;;;;;;5030619;28;20190;-70
2022/02/16 11:31:37;;;;;;;6.10;3.22;;;9.40;54.80;;;;;;5025105;28;20642;-68
2022/02/16 11:34:15;;;;;;;5.70;2.63;;;9.40;54.90;;;;;;5027671;28;20191;-69
2022/02/16 11:36:54;;;;;;;3.42;2.30;;;9.40;55.90;;;;;;5030027;28;20314;-68
2022/02/16 11:40:02;;;;;;;7.40;1.98;;;9.40;56.20;;;;;;5030783;28;20273;-69
2022/02/16 11:42:52;;;;;;;3.90;1.98;;;9.40;57.50;;;;;;4935644;29;20195;-69
2022/02/16 11:45:21;;;;;;;3.67;2.08;;;9.20;58.40;;;;;;4931204;29;20292;-69
2022/02/16 11:47:55;;;;;;;6.47;3.35;;;9.20;58.90;;;;;;4996998;28;20231;-68
2022/02/16 11:50:42;;;;;;;5.22;3.05;;;9.10;60.10;;;;;;5029296;28;20201;-69
2022/02/16 11:53:14;;;;;;;6.35;3.50;;;9.10;60.40;;;;;;5031114;28;20197;-68
2022/02/16 11:55:44;;;;;;;7.88;4.25;;;9.20;59.80;;;;;;5023186;28;20183;-68
2022/02/16 11:58:17;;;;;;;3.97;1.92;;;9.20;60.70;;;;;;5030829;28;20233;-68
2022/02/16 12:00:55;;;;;;;4.35;1.85;;;9.20;61.60;;;;;;5027952;28;20343;-69
2022/02/16 12:03:24;;;;;;;2.95;1.10;;;9.30;63.00;;;;;;5030741;28;20660;-68
2022/02/16 12:06:13;;;;;;;3.67;1.80;;;9.30;63.90;;;;;;5021695;28;20245;-70
2022/02/16 12:09:04;;;;;;;3.75;2.50;;;9.30;63.80;;;;;;5028079;28;20652;-68
2022/02/16 12:11:32;;;;;;;6.05;4.35;;;9.40;63.90;;;;;;5029269;28;20191;-68
2022/02/16 12:14:02;;;;;;;5.10;2.85;;;9.50;64.60;;;;;;5025498;28;20218;-68
2022/02/16 12:16:32;;;;;;;3.65;2.83;;;9.50;65.40;;;;;;5030776;28;20225;-69
2022/02/16 12:19:02;;;;;;;3.22;2.60;;;9.50;66.00;;;;;;5029591;28;20348;-68
2022/02/16 12:21:31;;;;;;;3.85;2.00;;;9.40;65.80;;;;;;5034591;28;20642;-69
2022/02/16 12:24:01;;;;;;;3.10;1.63;;;9.50;65.30;;;;;;5030449;28;20191;-69
2022/02/16 12:26:37;;;;;;;4.10;2.28;;;9.50;64.50;;;;;;5032397;28;20638;-68
2022/02/16 12:29:06;;;;;;;3.30;2.10;;;9.50;66.20;;;;;;5032717;28;20182;-68
2022/02/16 12:31:35;;;;;;;3.33;2.50;;;9.50;66.10;;;;;;5032421;28;20233;-69
2022/02/16 12:34:06;;;;;;;2.30;1.20;;;9.60;66.30;;;;;;5028721;28;20651;-76
2022/02/16 12:36:36;;;;;;;2.20;1.50;;;9.60;65.90;;;;;;5033146;28;20233;-68
2022/02/16 12:39:07;;;;;;;7.40;1.65;;;9.70;66.30;;;;;;5035906;28;20564;-68
2022/02/16 12:41:36;;;;;;;3.58;1.63;;;9.60;66.60;;;;;;5032704;28;20245;-69
2022/02/16 12:44:07;;;;;;;6.45;2.42;;;9.60;67.20;;;;;;5030980;28;20268;-71
2022/02/16 12:46:41;;;;;;;4.28;2.00;;;9.70;67.20;;;;;;5035843;28;20194;-70
2022/02/16 12:49:14;;;;;;;3.97;2.70;;;9.70;67.50;;;;;;5028077;28;20190;-68
2022/02/16 12:51:47;;;;;;;3.72;2.30;;;9.60;67.50;;;;;;5028744;28;20198;-68
2022/02/16 12:54:16;;;;;;;3.42;2.00;;;9.70;67.90;;;;;;5027148;28;20313;-69
2022/02/16 12:56:46;;;;;;;4.30;2.38;;;9.60;67.30;;;;;;5025636;28;20221;-68
2022/02/16 12:59:22;;;;;;;4.47;2.10;;;9.50;68.30;;;;;;5027379;28;20245;-68
2022/02/16 13:01:50;;;;;;;4.25;1.90;;;9.60;67.60;;;;;;5028524;28;20713;-68